sensor_id;sensor_type;location;lat;lon;timestamp;pressure;altitude;pressure_sealevel;temperature;humidity
65800;BME280;52544;48.116;11.660;2022-09-16T00:01:08;95066.50;;;14.49;100.00
65800;BME280;52544;48.116;11.660;2022-09-16T00:03:34;95078.97;;;14.48;100.00
65800;BME280;52544;48.116;11.660;2022-09-16T00:05:59;95071.09;;;14.47;100.00
65800;BME280;52544;48.116;11.660;2022-09-16T00:08:24;95069.16;;;14.49;100.00
65800;BME280;52544;48.116;11.660;2022-09-16T00:10:50;95069.63;;;14.53;100.00
65800;BME280;52544;48.116;11.660;2022-09-16T00:13:17;95065.16;;;14.53;100.00
65800;BME280;52544;48.116;11.660;2022-09-16T00:15:44;95061.81;;;14.51;100.00
65800;BME280;52544;48.116;11.660;2022-09-16T00:18:10;95055.47;;;14.52;100.00
65800;BME280;52544;48.116;11.660;2022-09-16T00:20:40;95051.81;;;14.45;100.00
65800;BME280;52544;48.116;11.660;2022-09-16T00:23:06;95047.97;;;14.39;100.00
65800;BME280;52544;48.116;11.660;2022-09-16T00:25:31;95055.81;;;14.41;100.00
65800;BME280;52544;48.116;11.660;2022-09-16T00:27:57;95052.31;;;14.32;100.00
65800;BME280;52544;48.116;11.660;2022-09-16T00:30:22;95039.53;;;14.36;100.00
65800;BME280;52544;48.116;11.660;2022-09-16T00:32:48;95040.81;;;14.40;100.00
65800;BME280;52544;48.116;11.660;2022-09-16T00:35:13;95037.31;;;14.39;100.00
65800;BME280;52544;48.116;11.660;2022-09-16T00:37:38;95035.66;;;14.46;100.00
65800;BME280;52544;48.116;11.660;2022-09-16T00:40:04;95033.53;;;14.50;100.00
65800;BME280;52544;48.116;11.660;2022-09-16T00:42:36;95036.00;;;14.43;100.00
65800;BME280;52544;48.116;11.660;2022-09-16T00:45:18;95036.50;;;14.39;100.00
65800;BME280;52544;48.116;11.660;2022-09-16T00:47:48;95034.84;;;14.46;100.00
65800;BME280;52544;48.116;11.660;2022-09-16T00:50:36;95040.81;;;14.48;100.00
65800;BME280;52544;48.116;11.660;2022-09-16T00:53:09;95036.81;;;14.44;99.89
65800;BME280;52544;48.116;11.660;2022-09-16T00:55:37;95040.66;;;14.41;99.79
65800;BME280;52544;48.116;11.660;2022-09-16T00:58:11;95045.66;;;14.44;99.64
65800;BME280;52544;48.116;11.660;2022-09-16T01:00:40;95047.81;;;14.41;100.00
65800;BME280;52544;48.116;11.660;2022-09-16T01:03:05;95047.47;;;14.44;100.00
65800;BME280;52544;48.116;11.660;2022-09-16T01:05:31;95048.81;;;14.40;100.00
65800;BME280;52544;48.116;11.660;2022-09-16T01:07:56;95047.16;;;14.39;100.00
65800;BME280;52544;48.116;11.660;2022-09-16T01:10:24;95053.47;;;14.38;100.00
65800;BME280;52544;48.116;11.660;2022-09-16T01:12:54;95046.66;;;14.35;100.00
65800;BME280;52544;48.116;11.660;2022-09-16T01:15:30;95039.00;;;14.32;100.00
65800;BME280;52544;48.116;11.660;2022-09-16T01:18:13;95045.00;;;14.26;100.00
65800;BME280;52544;48.116;11.660;2022-09-16T01:24:02;95046.00;;;14.25;99.91
65800;BME280;52544;48.116;11.660;2022-09-16T01:32:31;95026.38;;;14.18;100.00
65800;BME280;52544;48.116;11.660;2022-09-16T01:35:02;95035.84;;;14.20;100.00
65800;BME280;52544;48.116;11.660;2022-09-16T01:42:56;95034.19;;;14.11;100.00
65800;BME280;52544;48.116;11.660;2022-09-16T01:45:37;95039.34;;;14.05;100.00
65800;BME280;52544;48.116;11.660;2022-09-16T01:48:36;95032.53;;;14.10;100.00
65800;BME280;52544;48.116;11.660;2022-09-16T01:51:29;95025.84;;;14.14;100.00
65800;BME280;52544;48.116;11.660;2022-09-16T01:54:26;95029.88;;;14.10;100.00
65800;BME280;52544;48.116;11.660;2022-09-16T01:59:43;95038.81;;;14.01;100.00
65800;BME280;52544;48.116;11.660;2022-09-16T02:02:23;95040.81;;;13.91;100.00
65800;BME280;52544;48.116;11.660;2022-09-16T02:04:55;95036.16;;;13.93;100.00
65800;BME280;52544;48.116;11.660;2022-09-16T02:07:28;95042.47;;;13.92;100.00
65800;BME280;52544;48.116;11.660;2022-09-16T02:09:58;95046.13;;;13.91;100.00
65800;BME280;52544;48.116;11.660;2022-09-16T02:12:34;95049.94;;;13.88;100.00
65800;BME280;52544;48.116;11.660;2022-09-16T02:15:04;95048.47;;;13.86;100.00
65800;BME280;52544;48.116;11.660;2022-09-16T02:17:35;95047.16;;;13.90;100.00
65800;BME280;52544;48.116;11.660;2022-09-16T02:20:08;95053.09;;;13.84;100.00
65800;BME280;52544;48.116;11.660;2022-09-16T02:22:41;95053.78;;;13.86;100.00
65800;BME280;52544;48.116;11.660;2022-09-16T02:25:09;95055.13;;;13.90;100.00
65800;BME280;52544;48.116;11.660;2022-09-16T02:27:38;95060.94;;;13.85;100.00
65800;BME280;52544;48.116;11.660;2022-09-16T02:30:08;95069.06;;;13.84;100.00
65800;BME280;52544;48.116;11.660;2022-09-16T02:32:39;95063.09;;;13.90;100.00
65800;BME280;52544;48.116;11.660;2022-09-16T02:35:09;95052.28;;;13.83;100.00
65800;BME280;52544;48.116;11.660;2022-09-16T02:37:42;95056.75;;;13.83;100.00
65800;BME280;52544;48.116;11.660;2022-09-16T02:40:23;95059.25;;;13.84;100.00
65800;BME280;52544;48.116;11.660;2022-09-16T02:42:50;95049.44;;;13.85;100.00
65800;BME280;52544;48.116;11.660;2022-09-16T02:45:16;95043.16;;;13.94;100.00
65800;BME280;52544;48.116;11.660;2022-09-16T02:48:01;95042.81;;;13.97;100.00
65800;BME280;52544;48.116;11.660;2022-09-16T02:50:42;95048.81;;;13.91;100.00
65800;BME280;52544;48.116;11.660;2022-09-16T02:55:50;95040.50;;;13.94;100.00
65800;BME280;52544;48.116;11.660;2022-09-16T02:58:17;95042.34;;;13.93;100.00
65800;BME280;52544;48.116;11.660;2022-09-16T03:00:46;95039.31;;;13.96;100.00
65800;BME280;52544;48.116;11.660;2022-09-16T03:03:12;95034.50;;;13.92;100.00
65800;BME280;52544;48.116;11.660;2022-09-16T03:08:25;95034.50;;;14.00;100.00
65800;BME280;52544;48.116;11.660;2022-09-16T03:10:51;95031.84;;;14.00;100.00
65800;BME280;52544;48.116;11.660;2022-09-16T03:13:39;95029.19;;;13.92;100.00
65800;BME280;52544;48.116;11.660;2022-09-16T03:16:26;95024.69;;;13.92;100.00
65800;BME280;52544;48.116;11.660;2022-09-16T03:19:02;95025.38;;;13.94;100.00
65800;BME280;52544;48.116;11.660;2022-09-16T03:21:54;95020.69;;;13.96;100.00
65800;BME280;52544;48.116;11.660;2022-09-16T03:27:18;95027.53;;;13.91;100.00
65800;BME280;52544;48.116;11.660;2022-09-16T03:29:54;95019.88;;;13.88;100.00
65800;BME280;52544;48.116;11.660;2022-09-16T03:32:26;95014.72;;;13.86;100.00
65800;BME280;52544;48.116;11.660;2022-09-16T03:35:00;95008.91;;;13.83;100.00
65800;BME280;52544;48.116;11.660;2022-09-16T03:37:28;95015.88;;;13.84;100.00
65800;BME280;52544;48.116;11.660;2022-09-16T03:39:59;95011.06;;;13.87;100.00
65800;BME280;52544;48.116;11.660;2022-09-16T03:42:27;95004.91;;;13.87;100.00
65800;BME280;52544;48.116;11.660;2022-09-16T03:44:53;95002.25;;;13.87;100.00
65800;BME280;52544;48.116;11.660;2022-09-16T03:47:18;95008.22;;;13.89;100.00
65800;BME280;52544;48.116;11.660;2022-09-16T03:49:43;95014.72;;;13.86;100.00
65800;BME280;52544;48.116;11.660;2022-09-16T03:52:09;95014.22;;;13.83;100.00
65800;BME280;52544;48.116;11.660;2022-09-16T03:54:36;95014.22;;;13.83;100.00
65800;BME280;52544;48.116;11.660;2022-09-16T03:57:02;95004.72;;;13.80;100.00
65800;BME280;52544;48.116;11.660;2022-09-16T03:59:28;95002.56;;;13.75;100.00
65800;BME280;52544;48.116;11.660;2022-09-16T04:01:54;94997.75;;;13.79;100.00
65800;BME280;52544;48.116;11.660;2022-09-16T04:04:19;95002.56;;;13.75;100.00
65800;BME280;52544;48.116;11.660;2022-09-16T04:06:45;95003.25;;;13.78;100.00
65800;BME280;52544;48.116;11.660;2022-09-16T04:09:11;95001.91;;;13.73;100.00
65800;BME280;52544;48.116;11.660;2022-09-16T04:11:39;94999.75;;;13.69;100.00
65800;BME280;52544;48.116;11.660;2022-09-16T04:14:05;95010.22;;;13.70;100.00
65800;BME280;52544;48.116;11.660;2022-09-16T04:16:32;95007.88;;;13.67;100.00
65800;BME280;52544;48.116;11.660;2022-09-16T04:18:57;95006.72;;;13.70;100.00
65800;BME280;52544;48.116;11.660;2022-09-16T04:21:23;95000.06;;;13.74;100.00
65800;BME280;52544;48.116;11.660;2022-09-16T04:23:49;95004.56;;;13.73;100.00
65800;BME280;52544;48.116;11.660;2022-09-16T04:26:15;95006.91;;;13.68;100.00
65800;BME280;52544;48.116;11.660;2022-09-16T04:28:41;95016.34;;;13.71;100.00
65800;BME280;52544;48.116;11.660;2022-09-16T04:31:10;95008.56;;;13.69;100.00
65800;BME280;52544;48.116;11.660;2022-09-16T04:33:37;95007.72;;;13.69;100.00
65800;BME280;52544;48.116;11.660;2022-09-16T04:36:14;95012.69;;;13.72;100.00
65800;BME280;52544;48.116;11.660;2022-09-16T04:38:43;95015.53;;;13.70;100.00
65800;BME280;52544;48.116;11.660;2022-09-16T04:41:13;95015.22;;;13.73;100.00
65800;BME280;52544;48.116;11.660;2022-09-16T04:43:39;95020.34;;;13.75;100.00
65800;BME280;52544;48.116;11.660;2022-09-16T04:46:05;95023.34;;;13.80;100.00
65800;BME280;52544;48.116;11.660;2022-09-16T04:48:32;95017.03;;;13.81;100.00
65800;BME280;52544;48.116;11.660;2022-09-16T04:51:07;95027.50;;;13.83;100.00
65800;BME280;52544;48.116;11.660;2022-09-16T04:53:33;95023.84;;;13.84;100.00
65800;BME280;52544;48.116;11.660;2022-09-16T04:56:09;95031.50;;;13.87;100.00
65800;BME280;52544;48.116;11.660;2022-09-16T04:59:02;95038.34;;;13.89;100.00
65800;BME280;52544;48.116;11.660;2022-09-16T05:01:28;95040.50;;;13.86;100.00
65800;BME280;52544;48.116;11.660;2022-09-16T05:03:57;95028.84;;;13.87;100.00
65800;BME280;52544;48.116;11.660;2022-09-16T05:06:28;95036.00;;;13.86;100.00
65800;BME280;52544;48.116;11.660;2022-09-16T05:08:55;95039.66;;;13.85;99.88
65800;BME280;52544;48.116;11.660;2022-09-16T05:11:25;95038.47;;;13.88;100.00
65800;BME280;52544;48.116;11.660;2022-09-16T05:13:53;95031.84;;;13.92;99.01
65800;BME280;52544;48.116;11.660;2022-09-16T05:16:20;95033.16;;;13.88;98.42
65800;BME280;52544;48.116;11.660;2022-09-16T05:18:48;95029.50;;;13.89;99.20
65800;BME280;52544;48.116;11.660;2022-09-16T05:21:15;95037.66;;;13.87;99.69
65800;BME280;52544;48.116;11.660;2022-09-16T05:23:42;95036.00;;;13.86;98.30
65800;BME280;52544;48.116;11.660;2022-09-16T05:26:10;95035.81;;;13.88;98.81
65800;BME280;52544;48.116;11.660;2022-09-16T05:28:36;95025.38;;;13.86;99.45
65800;BME280;52544;48.116;11.660;2022-09-16T05:31:13;95031.81;;;13.84;99.32
65800;BME280;52544;48.116;11.660;2022-09-16T05:33:41;95037.16;;;13.84;98.91
65800;BME280;52544;48.116;11.660;2022-09-16T05:36:08;95039.97;;;13.82;98.74
65800;BME280;52544;48.116;11.660;2022-09-16T05:38:34;95047.28;;;13.80;99.19
65800;BME280;52544;48.116;11.660;2022-09-16T05:41:01;95042.13;;;13.79;99.47
65800;BME280;52544;48.116;11.660;2022-09-16T05:43:26;95034.66;;;13.82;99.16
65800;BME280;52544;48.116;11.660;2022-09-16T05:45:53;95030.84;;;13.77;99.64
65800;BME280;52544;48.116;11.660;2022-09-16T05:48:19;95033.81;;;13.73;99.96
65800;BME280;52544;48.116;11.660;2022-09-16T05:50:55;95019.53;;;14.64;100.00
65800;BME280;52544;48.116;11.660;2022-09-16T05:53:22;95014.56;;;14.45;100.00
65800;BME280;52544;48.116;11.660;2022-09-16T05:56:04;95014.88;;;14.25;100.00
65800;BME280;52544;48.116;11.660;2022-09-16T05:58:31;95022.53;;;14.12;99.44
65800;BME280;52544;48.116;11.660;2022-09-16T06:01:08;95022.88;;;14.09;98.59
65800;BME280;52544;48.116;11.660;2022-09-16T06:03:36;95009.91;;;14.06;98.51
65800;BME280;52544;48.116;11.660;2022-09-16T06:06:26;95015.72;;;14.01;97.63
65800;BME280;52544;48.116;11.660;2022-09-16T06:08:56;95016.38;;;14.04;99.33
65800;BME280;52544;48.116;11.660;2022-09-16T06:11:22;95027.03;;;14.04;98.62
65800;BME280;52544;48.116;11.660;2022-09-16T06:13:55;95019.88;;;14.12;98.58
65800;BME280;52544;48.116;11.660;2022-09-16T06:16:22;95019.88;;;14.20;98.36
65800;BME280;52544;48.116;11.660;2022-09-16T06:18:50;95023.19;;;14.22;98.87
65800;BME280;52544;48.116;11.660;2022-09-16T06:21:16;95019.38;;;14.17;99.04
65800;BME280;52544;48.116;11.660;2022-09-16T06:23:41;95014.25;;;14.15;99.05
65800;BME280;52544;48.116;11.660;2022-09-16T06:26:10;95019.38;;;14.17;99.62
65800;BME280;52544;48.116;11.660;2022-09-16T06:28:37;95010.91;;;14.13;99.35
65800;BME280;52544;48.116;11.660;2022-09-16T06:31:11;95011.25;;;14.10;100.00
65800;BME280;52544;48.116;11.660;2022-09-16T06:33:38;95016.06;;;14.15;100.00
65800;BME280;52544;48.116;11.660;2022-09-16T06:36:10;95007.22;;;14.14;100.00
65800;BME280;52544;48.116;11.660;2022-09-16T06:38:36;95015.56;;;14.19;100.00
65800;BME280;52544;48.116;11.660;2022-09-16T06:41:05;95022.88;;;14.09;99.38
65800;BME280;52544;48.116;11.660;2022-09-16T06:43:31;95013.41;;;14.15;100.00
65800;BME280;52544;48.116;11.660;2022-09-16T06:46:03;95023.38;;;14.21;100.00
65800;BME280;52544;48.116;11.660;2022-09-16T06:48:32;95019.22;;;14.18;100.00
65800;BME280;52544;48.116;11.660;2022-09-16T06:51:10;95022.53;;;14.20;100.00
65800;BME280;52544;48.116;11.660;2022-09-16T06:53:36;95020.38;;;14.16;100.00
65800;BME280;52544;48.116;11.660;2022-09-16T06:56:03;95019.22;;;14.18;99.67
65800;BME280;52544;48.116;11.660;2022-09-16T06:58:31;95014.56;;;14.20;100.00
65800;BME280;52544;48.116;11.660;2022-09-16T07:00:57;95016.06;;;14.23;100.00
65800;BME280;52544;48.116;11.660;2022-09-16T07:03:23;95025.53;;;14.25;100.00
65800;BME280;52544;48.116;11.660;2022-09-16T07:05:58;95007.91;;;14.24;100.00
65800;BME280;52544;48.116;11.660;2022-09-16T07:08:27;95019.88;;;14.29;100.00
65800;BME280;52544;48.116;11.660;2022-09-16T07:13:23;95016.41;;;14.28;100.00
65800;BME280;52544;48.116;11.660;2022-09-16T07:15:48;95009.56;;;14.25;100.00
65800;BME280;52544;48.116;11.660;2022-09-16T07:18:13;95019.38;;;14.25;100.00
65800;BME280;52544;48.116;11.660;2022-09-16T07:20:39;95016.91;;;14.23;100.00
65800;BME280;52544;48.116;11.660;2022-09-16T07:23:04;95020.53;;;14.22;100.00
65800;BME280;52544;48.116;11.660;2022-09-16T07:25:30;95011.91;;;14.20;100.00
65800;BME280;52544;48.116;11.660;2022-09-16T07:27:57;95025.03;;;14.22;100.00
65800;BME280;52544;48.116;11.660;2022-09-16T07:30:23;95013.88;;;14.18;100.00
65800;BME280;52544;48.116;11.660;2022-09-16T07:32:48;95019.88;;;14.29;100.00
65800;BME280;52544;48.116;11.660;2022-09-16T07:35:13;95026.53;;;14.24;100.00
65800;BME280;52544;48.116;11.660;2022-09-16T07:37:39;95021.53;;;14.30;100.00
65800;BME280;52544;48.116;11.660;2022-09-16T07:40:04;95022.69;;;14.27;99.12
65800;BME280;52544;48.116;11.660;2022-09-16T07:42:30;95023.38;;;14.21;98.87
65800;BME280;52544;48.116;11.660;2022-09-16T07:44:56;95024.53;;;14.18;99.99
65800;BME280;52544;48.116;11.660;2022-09-16T07:47:21;95023.56;;;14.28;99.71
65800;BME280;52544;48.116;11.660;2022-09-16T07:49:47;95021.22;;;14.33;99.03
65800;BME280;52544;48.116;11.660;2022-09-16T07:52:13;95013.72;;;14.36;98.95
65800;BME280;52544;48.116;11.660;2022-09-16T07:54:38;95013.56;;;14.38;97.67
65800;BME280;52544;48.116;11.660;2022-09-16T07:57:04;95010.38;;;14.42;98.70
65800;BME280;52544;48.116;11.660;2022-09-16T07:59:29;95007.91;;;14.41;98.72
65800;BME280;52544;48.116;11.660;2022-09-16T08:01:55;95008.56;;;14.35;96.50
65800;BME280;52544;48.116;11.660;2022-09-16T08:04:20;95010.38;;;14.42;98.16
65800;BME280;52544;48.116;11.660;2022-09-16T08:06:46;95008.56;;;14.35;96.27
65800;BME280;52544;48.116;11.660;2022-09-16T08:09:12;95008.88;;;14.40;96.29
65800;BME280;52544;48.116;11.660;2022-09-16T08:11:37;95006.06;;;14.41;95.33
65800;BME280;52544;48.116;11.660;2022-09-16T08:14:02;95013.22;;;14.41;95.25
65800;BME280;52544;48.116;11.660;2022-09-16T08:16:28;95015.38;;;14.45;96.47
65800;BME280;52544;48.116;11.660;2022-09-16T08:18:55;95008.56;;;14.51;97.21
65800;BME280;52544;48.116;11.660;2022-09-16T08:21:26;95000.75;;;14.49;94.98
65800;BME280;52544;48.116;11.660;2022-09-16T08:23:56;95003.25;;;14.51;94.75
65800;BME280;52544;48.116;11.660;2022-09-16T08:26:23;95007.75;;;14.50;95.51
65800;BME280;52544;48.116;11.660;2022-09-16T08:28:49;95006.22;;;14.56;96.07
65800;BME280;52544;48.116;11.660;2022-09-16T08:31:16;95011.56;;;14.56;97.48
65800;BME280;52544;48.116;11.660;2022-09-16T08:33:42;95025.38;;;14.60;97.26
65800;BME280;52544;48.116;11.660;2022-09-16T08:36:12;95026.88;;;14.62;95.93
65800;BME280;52544;48.116;11.660;2022-09-16T08:38:40;95017.88;;;14.63;94.81
65800;BME280;52544;48.116;11.660;2022-09-16T08:46:53;95029.03;;;14.67;94.13
65800;BME280;52544;48.116;11.660;2022-09-16T08:49:45;95019.19;;;14.75;95.22
65800;BME280;52544;48.116;11.660;2022-09-16T08:54:46;95011.31;;;14.82;93.91
65800;BME280;52544;48.116;11.660;2022-09-16T08:57:17;95010.00;;;14.78;93.12
65800;BME280;52544;48.116;11.660;2022-09-16T08:59:51;95004.53;;;14.71;91.42
65800;BME280;52544;48.116;11.660;2022-09-16T09:05:38;95010.50;;;14.82;94.32
65800;BME280;52544;48.116;11.660;2022-09-16T09:08:47;95008.50;;;14.84;93.53
65800;BME280;52544;48.116;11.660;2022-09-16T09:24:30;95001.34;;;14.84;91.69
65800;BME280;52544;48.116;11.660;2022-09-16T09:37:48;94994.19;;;14.77;93.66
65800;BME280;52544;48.116;11.660;2022-09-16T09:43:15;94982.19;;;14.81;97.77
65800;BME280;52544;48.116;11.660;2022-09-16T09:46:11;94985.53;;;14.83;98.75
65800;BME280;52544;48.116;11.660;2022-09-16T09:48:44;94982.91;;;14.74;97.37
65800;BME280;52544;48.116;11.660;2022-09-16T09:51:20;94983.88;;;14.73;97.86
65800;BME280;52544;48.116;11.660;2022-09-16T09:53:54;94990.53;;;14.69;97.45
65800;BME280;52544;48.116;11.660;2022-09-16T09:56:25;94981.59;;;14.70;100.00
65800;BME280;52544;48.116;11.660;2022-09-16T10:01:18;94977.59;;;14.66;100.00
65800;BME280;52544;48.116;11.660;2022-09-16T10:03:43;94982.94;;;14.66;100.00
65800;BME280;52544;48.116;11.660;2022-09-16T10:06:10;94981.22;;;14.65;100.00
65800;BME280;52544;48.116;11.660;2022-09-16T10:08:48;94984.59;;;14.59;100.00
65800;BME280;52544;48.116;11.660;2022-09-16T10:11:20;94980.59;;;14.63;100.00
65800;BME280;52544;48.116;11.660;2022-09-16T10:13:54;94978.56;;;14.65;100.00
65800;BME280;52544;48.116;11.660;2022-09-16T10:16:23;94978.56;;;14.65;100.00
65800;BME280;52544;48.116;11.660;2022-09-16T10:19:22;94973.25;;;14.65;99.91
65800;BME280;52544;48.116;11.660;2022-09-16T10:21:54;94978.44;;;14.67;100.00
65800;BME280;52544;48.116;11.660;2022-09-16T10:24:32;94971.06;;;14.69;100.00
65800;BME280;52544;48.116;11.660;2022-09-16T10:27:00;94977.09;;;14.71;100.00
65800;BME280;52544;48.116;11.660;2022-09-16T10:29:26;94967.25;;;14.71;100.00
65800;BME280;52544;48.116;11.660;2022-09-16T10:31:53;94961.25;;;14.69;100.00
65800;BME280;52544;48.116;11.660;2022-09-16T10:34:33;94963.91;;;14.69;100.00
65800;BME280;52544;48.116;11.660;2022-09-16T10:39:39;94948.44;;;14.65;100.00
65800;BME280;52544;48.116;11.660;2022-09-16T10:42:21;94956.00;;;14.53;100.00
65800;BME280;52544;48.116;11.660;2022-09-16T10:44:49;94952.47;;;14.61;100.00
65800;BME280;52544;48.116;11.660;2022-09-16T10:47:23;94947.66;;;14.56;100.00
65800;BME280;52544;48.116;11.660;2022-09-16T10:49:53;94950.50;;;14.55;100.00
65800;BME280;52544;48.116;11.660;2022-09-16T10:52:23;94939.50;;;14.58;100.00
65800;BME280;52544;48.116;11.660;2022-09-16T10:54:49;94942.19;;;14.58;100.00
65800;BME280;52544;48.116;11.660;2022-09-16T10:57:27;94950.00;;;14.51;100.00
65800;BME280;52544;48.116;11.660;2022-09-16T11:02:54;94940.84;;;14.45;100.00
65800;BME280;52544;48.116;11.660;2022-09-16T11:05:32;94944.34;;;14.38;100.00
65800;BME280;52544;48.116;11.660;2022-09-16T11:19:03;94927.75;;;14.28;100.00
65800;BME280;52544;48.116;11.660;2022-09-16T11:22:35;94915.63;;;14.17;100.00
65800;BME280;52544;48.116;11.660;2022-09-16T11:25:15;94976.81;;;13.92;100.00
65800;BME280;52544;48.116;11.660;2022-09-16T11:30:29;94958.38;;;13.83;100.00
65800;BME280;52544;48.116;11.660;2022-09-16T11:33:02;94972.16;;;13.78;100.00
65800;BME280;52544;48.116;11.660;2022-09-16T11:38:49;94972.31;;;13.60;100.00
65800;BME280;52544;48.116;11.660;2022-09-16T11:44:00;94969.28;;;13.31;100.00
65800;BME280;52544;48.116;11.660;2022-09-16T11:49:21;94972.94;;;13.30;100.00
65800;BME280;52544;48.116;11.660;2022-09-16T11:57:37;95000.66;;;12.93;100.00
65800;BME280;52544;48.116;11.660;2022-09-16T12:00:10;95007.22;;;12.81;100.00
65800;BME280;52544;48.116;11.660;2022-09-16T12:05:44;95009.63;;;12.58;100.00
65800;BME280;52544;48.116;11.660;2022-09-16T12:10:52;95004.59;;;12.55;100.00
65800;BME280;52544;48.116;11.660;2022-09-16T12:13:37;95014.66;;;12.43;100.00
65800;BME280;52544;48.116;11.660;2022-09-16T12:16:16;95023.25;;;12.37;100.00
65800;BME280;52544;48.116;11.660;2022-09-16T12:18:48;95013.34;;;12.47;100.00
65800;BME280;52544;48.116;11.660;2022-09-16T12:24:00;95017.94;;;12.37;100.00
65800;BME280;52544;48.116;11.660;2022-09-16T12:26:32;95022.78;;;12.41;100.00
65800;BME280;52544;48.116;11.660;2022-09-16T12:31:37;95035.56;;;12.72;100.00
65800;BME280;52544;48.116;11.660;2022-09-16T12:34:10;95037.75;;;12.76;100.00
65800;BME280;52544;48.116;11.660;2022-09-16T12:36:41;95037.13;;;12.57;100.00
65800;BME280;52544;48.116;11.660;2022-09-16T12:39:09;95032.38;;;12.68;100.00
65800;BME280;52544;48.116;11.660;2022-09-16T12:41:59;95037.81;;;12.59;100.00
65800;BME280;52544;48.116;11.660;2022-09-16T12:47:31;95037.59;;;12.52;100.00
65800;BME280;52544;48.116;11.660;2022-09-16T12:50:26;95062.47;;;12.51;100.00
65800;BME280;52544;48.116;11.660;2022-09-16T13:01:18;95062.41;;;12.43;100.00
65800;BME280;52544;48.116;11.660;2022-09-16T13:03:52;95058.75;;;12.44;100.00
65800;BME280;52544;48.116;11.660;2022-09-16T13:06:24;95053.97;;;12.47;100.00
65800;BME280;52544;48.116;11.660;2022-09-16T13:08:51;95057.09;;;12.43;100.00
65800;BME280;52544;48.116;11.660;2022-09-16T13:11:23;95063.88;;;12.37;100.00
65800;BME280;52544;48.116;11.660;2022-09-16T13:13:58;95058.34;;;12.31;100.00
65800;BME280;52544;48.116;11.660;2022-09-16T13:16:32;95062.44;;;12.25;100.00
65800;BME280;52544;48.116;11.660;2022-09-16T13:21:49;95065.78;;;12.09;100.00
65800;BME280;52544;48.116;11.660;2022-09-16T13:26:57;95047.47;;;11.98;100.00
65800;BME280;52544;48.116;11.660;2022-09-16T13:29:41;95042.19;;;11.98;100.00
65800;BME280;52544;48.116;11.660;2022-09-16T13:32:35;95040.84;;;12.02;100.00
65800;BME280;52544;48.116;11.660;2022-09-16T13:35:33;95037.91;;;12.05;100.00
65800;BME280;52544;48.116;11.660;2022-09-16T13:38:10;95033.59;;;12.04;100.00
65800;BME280;52544;48.116;11.660;2022-09-16T13:41:01;95030.88;;;11.96;100.00
65800;BME280;52544;48.116;11.660;2022-09-16T13:46:02;95036.63;;;12.09;100.00
65800;BME280;52544;48.116;11.660;2022-09-16T13:48:36;95049.94;;;12.17;100.00
65800;BME280;52544;48.116;11.660;2022-09-16T13:51:08;95046.31;;;12.18;100.00
65800;BME280;52544;48.116;11.660;2022-09-16T13:53:43;95053.50;;;12.26;100.00
65800;BME280;52544;48.116;11.660;2022-09-16T13:58:50;95057.44;;;12.22;100.00
65800;BME280;52544;48.116;11.660;2022-09-16T14:01:30;95070.50;;;12.15;100.00
65800;BME280;52544;48.116;11.660;2022-09-16T14:15:04;95098.31;;;12.11;100.00
65800;BME280;52544;48.116;11.660;2022-09-16T14:17:38;95100.13;;;12.11;100.00
65800;BME280;52544;48.116;11.660;2022-09-16T14:20:12;95106.94;;;12.13;100.00
65800;BME280;52544;48.116;11.660;2022-09-16T14:22:40;95113.53;;;12.09;100.00
65800;BME280;52544;48.116;11.660;2022-09-16T14:25:34;95110.88;;;12.09;100.00
65800;BME280;52544;48.116;11.660;2022-09-16T14:28:29;95115.50;;;12.07;100.00
65800;BME280;52544;48.116;11.660;2022-09-16T14:30:59;95108.22;;;12.09;100.00
65800;BME280;52544;48.116;11.660;2022-09-16T14:33:35;95119.66;;;12.10;100.00
65800;BME280;52544;48.116;11.660;2022-09-16T14:36:08;95116.81;;;12.03;98.65
65800;BME280;52544;48.116;11.660;2022-09-16T14:38:38;95115.19;;;12.10;98.99
65800;BME280;52544;48.116;11.660;2022-09-16T14:41:06;95098.97;;;12.13;99.30
65800;BME280;52544;48.116;11.660;2022-09-16T14:43:36;95102.34;;;12.15;100.00
65800;BME280;52544;48.116;11.660;2022-09-16T14:46:02;95092.03;;;12.12;99.96
65800;BME280;52544;48.116;11.660;2022-09-16T14:48:34;95085.13;;;12.19;98.45
65800;BME280;52544;48.116;11.660;2022-09-16T14:51:02;95098.69;;;12.16;100.00
65800;BME280;52544;48.116;11.660;2022-09-16T14:53:30;95109.00;;;12.19;100.00
65800;BME280;52544;48.116;11.660;2022-09-16T14:55:56;95113.31;;;12.20;100.00
65800;BME280;52544;48.116;11.660;2022-09-16T14:58:23;95106.03;;;12.22;100.00
65800;BME280;52544;48.116;11.660;2022-09-16T15:01:04;95095.81;;;12.28;100.00
65800;BME280;52544;48.116;11.660;2022-09-16T15:03:53;95102.53;;;12.22;100.00
65800;BME280;52544;48.116;11.660;2022-09-16T15:06:24;95105.34;;;12.20;100.00
65800;BME280;52544;48.116;11.660;2022-09-16T15:11:31;95103.38;;;12.22;100.00
65800;BME280;52544;48.116;11.660;2022-09-16T15:13:58;95104.59;;;12.28;100.00
65800;BME280;52544;48.116;11.660;2022-09-16T15:16:24;95100.94;;;12.29;100.00
65800;BME280;52544;48.116;11.660;2022-09-16T15:19:03;95108.09;;;12.29;100.00
65800;BME280;52544;48.116;11.660;2022-09-16T15:21:32;95094.13;;;12.26;100.00
65800;BME280;52544;48.116;11.660;2022-09-16T15:24:01;95104.72;;;12.26;100.00
65800;BME280;52544;48.116;11.660;2022-09-16T15:26:30;95107.19;;;12.20;100.00
65800;BME280;52544;48.116;11.660;2022-09-16T15:31:43;95105.06;;;12.23;100.00
65800;BME280;52544;48.116;11.660;2022-09-16T15:36:45;95110.97;;;12.17;99.75
65800;BME280;52544;48.116;11.660;2022-09-16T15:42:10;95102.91;;;12.09;100.00